Terminal Aerodrome Forecast
Issued by NWS

Home | Current Version | Previous Version | Text Only | Print | Product List | Glossary Off
Versions: 1 2 3 4 5 6 7 8 9 10 11 12 13 14 15 16 17 18 19 20 21

000
FTUS43 KICT 142101 AAA
TAFRSL
TAF AMD
KRSL 142101Z 1421/1518 15015G22KT P6SM VCSH SCT020 BKN030
     FM150900 27015G25KT 6SM -RA BR SCT008 OVC012
     FM151200 33022G31KT P6SM VCSH SCT009 BKN015=

USA.gov is the U.S. government's official web portal to all federal, state and local government web resources and services.